sensor_id;sensor_type;location;lat;lon;timestamp;noise_LAeq;noise_LA_min;noise_LA_max;noise_LA01;noise_LA95
45651;Laerm;31365;48.858;8.530;2023-09-19T00:01:08;41.01;34.69;66.34;;
45651;Laerm;31365;48.858;8.530;2023-09-19T00:03:38;49.84;35.04;69.58;;
45651;Laerm;31365;48.858;8.530;2023-09-19T00:06:11;39.95;33.44;42.65;;
45651;Laerm;31365;48.858;8.530;2023-09-19T00:08:40;40.08;31.68;45.45;;
45651;Laerm;31365;48.858;8.530;2023-09-19T00:11:11;43.37;37.70;54.82;;
45651;Laerm;31365;48.858;8.530;2023-09-19T00:13:39;40.62;37.32;46.43;;
45651;Laerm;31365;48.858;8.530;2023-09-19T00:16:11;51.19;36.20;71.75;;
45651;Laerm;31365;48.858;8.530;2023-09-19T00:18:39;52.93;37.32;73.10;;
45651;Laerm;31365;48.858;8.530;2023-09-19T00:21:08;40.36;35.94;43.19;;
45651;Laerm;31365;48.858;8.530;2023-09-19T00:23:39;40.54;35.66;47.34;;
45651;Laerm;31365;48.858;8.530;2023-09-19T00:26:09;41.10;37.70;62.98;;
45651;Laerm;31365;48.858;8.530;2023-09-19T00:28:38;55.69;38.05;73.48;;
45651;Laerm;31365;48.858;8.530;2023-09-19T00:31:08;42.80;36.20;55.03;;
45651;Laerm;31365;48.858;8.530;2023-09-19T00:33:36;52.56;36.69;73.16;;
45651;Laerm;31365;48.858;8.530;2023-09-19T00:36:05;40.73;37.12;55.91;;
45651;Laerm;31365;48.858;8.530;2023-09-19T00:38:33;52.52;35.66;72.85;;
45651;Laerm;31365;48.858;8.530;2023-09-19T00:41:03;44.99;35.66;62.21;;
45651;Laerm;31365;48.858;8.530;2023-09-19T00:43:32;49.19;36.91;68.32;;
45651;Laerm;31365;48.858;8.530;2023-09-19T00:46:02;41.20;37.12;57.73;;
45651;Laerm;31365;48.858;8.530;2023-09-19T00:48:41;52.61;37.52;74.51;;
45651;Laerm;31365;48.858;8.530;2023-09-19T00:51:12;40.94;36.45;56.61;;
45651;Laerm;31365;48.858;8.530;2023-09-19T00:53:43;41.69;34.69;55.88;;
45651;Laerm;31365;48.858;8.530;2023-09-19T00:56:15;40.59;32.35;43.68;;
45651;Laerm;31365;48.858;8.530;2023-09-19T00:58:47;42.00;34.69;47.16;;
45651;Laerm;31365;48.858;8.530;2023-09-19T01:01:16;51.81;36.45;69.68;;
45651;Laerm;31365;48.858;8.530;2023-09-19T01:03:46;40.77;35.94;51.22;;
45651;Laerm;31365;48.858;8.530;2023-09-19T01:06:15;50.58;36.20;69.19;;
45651;Laerm;31365;48.858;8.530;2023-09-19T01:08:44;40.66;37.32;43.77;;
45651;Laerm;31365;48.858;8.530;2023-09-19T01:11:21;41.78;35.36;69.32;;
45651;Laerm;31365;48.858;8.530;2023-09-19T01:14:02;52.12;36.69;71.35;;
45651;Laerm;31365;48.858;8.530;2023-09-19T01:16:42;40.20;35.94;43.04;;
45651;Laerm;31365;48.858;8.530;2023-09-19T01:19:51;40.16;35.01;42.59;;
45651;Laerm;31365;48.858;8.530;2023-09-19T01:22:40;40.49;35.94;59.99;;
45651;Laerm;31365;48.858;8.530;2023-09-19T01:25:57;52.03;37.52;72.76;;
45651;Laerm;31365;48.858;8.530;2023-09-19T01:28:48;40.51;33.44;57.46;;
45651;Laerm;31365;48.858;8.530;2023-09-19T01:31:28;40.44;36.10;44.69;;
45651;Laerm;31365;48.858;8.530;2023-09-19T01:34:00;60.95;35.04;82.48;;
45651;Laerm;31365;48.858;8.530;2023-09-19T01:36:31;45.16;36.20;66.97;;
45651;Laerm;31365;48.858;8.530;2023-09-19T01:39:05;40.41;36.45;48.39;;
45651;Laerm;31365;48.858;8.530;2023-09-19T01:41:51;40.53;35.04;44.19;;
45651;Laerm;31365;48.858;8.530;2023-09-19T01:44:30;40.57;36.45;49.21;;
45651;Laerm;31365;48.858;8.530;2023-09-19T01:47:17;40.76;35.04;58.64;;
45651;Laerm;31365;48.858;8.530;2023-09-19T01:50:00;39.87;33.90;42.53;;
45651;Laerm;31365;48.858;8.530;2023-09-19T01:52:39;39.77;34.31;52.59;;
45651;Laerm;31365;48.858;8.530;2023-09-19T01:55:13;40.59;36.45;44.35;;
45651;Laerm;31365;48.858;8.530;2023-09-19T01:57:58;40.07;33.90;45.33;;
45651;Laerm;31365;48.858;8.530;2023-09-19T02:00:32;48.67;33.90;66.04;;
45651;Laerm;31365;48.858;8.530;2023-09-19T02:03:04;55.97;35.36;76.01;;
45651;Laerm;31365;48.858;8.530;2023-09-19T02:05:32;57.35;35.66;78.26;;
45651;Laerm;31365;48.858;8.530;2023-09-19T02:08:01;54.56;33.44;72.98;;
45651;Laerm;31365;48.858;8.530;2023-09-19T02:10:30;39.58;34.69;42.47;;
45651;Laerm;31365;48.858;8.530;2023-09-19T02:12:58;43.32;34.31;57.45;;
45651;Laerm;31365;48.858;8.530;2023-09-19T02:15:27;42.03;35.36;51.26;;
45651;Laerm;31365;48.858;8.530;2023-09-19T02:17:55;59.82;34.69;79.46;;
45651;Laerm;31365;48.858;8.530;2023-09-19T02:20:25;52.73;33.90;71.85;;
45651;Laerm;31365;48.858;8.530;2023-09-19T02:22:54;39.73;32.35;47.16;;
45651;Laerm;31365;48.858;8.530;2023-09-19T02:25:22;55.43;34.31;74.12;;
45651;Laerm;31365;48.858;8.530;2023-09-19T02:27:53;61.82;37.12;79.48;;
45651;Laerm;31365;48.858;8.530;2023-09-19T02:30:25;55.02;34.69;77.36;;
45651;Laerm;31365;48.858;8.530;2023-09-19T02:32:55;40.24;35.04;57.32;;
45651;Laerm;31365;48.858;8.530;2023-09-19T02:35:25;42.23;35.04;59.02;;
45651;Laerm;31365;48.858;8.530;2023-09-19T02:37:55;40.42;35.36;44.01;;
45651;Laerm;31365;48.858;8.530;2023-09-19T02:40:24;51.55;35.01;67.90;;
45651;Laerm;31365;48.858;8.530;2023-09-19T02:42:54;59.89;36.20;79.48;;
45651;Laerm;31365;48.858;8.530;2023-09-19T02:45:23;53.44;35.36;70.63;;
45651;Laerm;31365;48.858;8.530;2023-09-19T02:47:52;42.95;37.32;57.94;;
45651;Laerm;31365;48.858;8.530;2023-09-19T02:50:21;58.78;37.52;82.95;;
45651;Laerm;31365;48.858;8.530;2023-09-19T02:52:51;46.14;36.69;62.51;;
45651;Laerm;31365;48.858;8.530;2023-09-19T02:55:21;57.89;36.45;78.53;;
45651;Laerm;31365;48.858;8.530;2023-09-19T02:57:51;56.13;36.10;75.63;;
45651;Laerm;31365;48.858;8.530;2023-09-19T03:00:22;55.23;35.94;78.46;;
45651;Laerm;31365;48.858;8.530;2023-09-19T03:02:54;54.44;36.91;72.21;;
45651;Laerm;31365;48.858;8.530;2023-09-19T03:05:25;39.85;35.36;42.53;;
45651;Laerm;31365;48.858;8.530;2023-09-19T03:07:55;42.31;36.91;60.93;;
45651;Laerm;31365;48.858;8.530;2023-09-19T03:10:23;40.60;36.91;52.09;;
45651;Laerm;31365;48.858;8.530;2023-09-19T03:12:52;40.17;36.20;42.71;;
45651;Laerm;31365;48.858;8.530;2023-09-19T03:15:21;52.60;36.91;73.03;;
45651;Laerm;31365;48.858;8.530;2023-09-19T03:17:51;57.12;38.18;76.64;;
45651;Laerm;31365;48.858;8.530;2023-09-19T03:20:22;54.12;37.88;71.75;;
45651;Laerm;31365;48.858;8.530;2023-09-19T03:22:50;50.98;37.12;69.01;;
45651;Laerm;31365;48.858;8.530;2023-09-19T03:25:21;60.18;37.52;76.81;;
45651;Laerm;31365;48.858;8.530;2023-09-19T03:27:52;58.80;36.91;78.98;;
45651;Laerm;31365;48.858;8.530;2023-09-19T03:30:22;57.49;37.32;75.00;;
45651;Laerm;31365;48.858;8.530;2023-09-19T03:32:51;57.85;37.52;76.33;;
45651;Laerm;31365;48.858;8.530;2023-09-19T03:35:21;58.55;35.36;76.75;;
45651;Laerm;31365;48.858;8.530;2023-09-19T03:40:21;60.25;38.67;77.76;;
45651;Laerm;31365;48.858;8.530;2023-09-19T03:42:50;62.32;37.32;77.64;;
45651;Laerm;31365;48.858;8.530;2023-09-19T03:45:19;55.29;36.91;73.23;;
45651;Laerm;31365;48.858;8.530;2023-09-19T03:47:50;56.77;37.52;73.24;;
45651;Laerm;31365;48.858;8.530;2023-09-19T03:50:22;59.31;37.88;78.56;;
45651;Laerm;31365;48.858;8.530;2023-09-19T03:52:56;59.84;36.20;77.82;;
45651;Laerm;31365;48.858;8.530;2023-09-19T03:55:26;59.89;38.05;74.69;;
45651;Laerm;31365;48.858;8.530;2023-09-19T03:57:54;58.17;38.67;78.41;;
45651;Laerm;31365;48.858;8.530;2023-09-19T04:00:23;57.16;36.45;75.01;;
45651;Laerm;31365;48.858;8.530;2023-09-19T04:02:53;60.19;40.98;75.47;;
45651;Laerm;31365;48.858;8.530;2023-09-19T04:05:24;62.10;42.16;76.74;;
45651;Laerm;31365;48.858;8.530;2023-09-19T04:07:52;63.66;38.52;81.64;;
45651;Laerm;31365;48.858;8.530;2023-09-19T04:10:20;59.02;38.95;76.01;;
45651;Laerm;31365;48.858;8.530;2023-09-19T04:12:55;62.47;37.70;77.72;;
45651;Laerm;31365;48.858;8.530;2023-09-19T04:15:24;62.23;38.21;77.46;;
45651;Laerm;31365;48.858;8.530;2023-09-19T04:17:53;59.34;39.81;75.87;;
45651;Laerm;31365;48.858;8.530;2023-09-19T04:20:22;62.35;38.37;80.12;;
45651;Laerm;31365;48.858;8.530;2023-09-19T04:22:51;62.24;41.96;76.14;;
45651;Laerm;31365;48.858;8.530;2023-09-19T04:27:49;62.83;40.53;77.73;;
45651;Laerm;31365;48.858;8.530;2023-09-19T04:30:18;63.79;40.80;76.53;;
45651;Laerm;31365;48.858;8.530;2023-09-19T04:32:48;65.00;40.89;79.66;;
45651;Laerm;31365;48.858;8.530;2023-09-19T04:35:18;61.53;39.81;76.58;;
45651;Laerm;31365;48.858;8.530;2023-09-19T04:37:47;64.77;44.51;79.20;;
45651;Laerm;31365;48.858;8.530;2023-09-19T04:40:15;64.31;39.58;78.58;;
45651;Laerm;31365;48.858;8.530;2023-09-19T04:45:15;65.72;40.13;77.36;;
45651;Laerm;31365;48.858;8.530;2023-09-19T04:47:46;65.46;39.46;79.38;;
45651;Laerm;31365;48.858;8.530;2023-09-19T04:50:14;65.75;40.53;79.52;;
45651;Laerm;31365;48.858;8.530;2023-09-19T04:52:44;65.02;43.09;78.69;;
45651;Laerm;31365;48.858;8.530;2023-09-19T04:55:18;66.26;46.38;78.47;;
45651;Laerm;31365;48.858;8.530;2023-09-19T04:57:50;65.87;42.29;79.12;;
45651;Laerm;31365;48.858;8.530;2023-09-19T05:00:21;65.85;43.86;78.47;;
45651;Laerm;31365;48.858;8.530;2023-09-19T05:02:56;65.41;41.61;87.79;;
45651;Laerm;31365;48.858;8.530;2023-09-19T05:05:25;61.74;38.81;79.00;;
45651;Laerm;31365;48.858;8.530;2023-09-19T05:07:53;63.75;40.71;80.26;;
45651;Laerm;31365;48.858;8.530;2023-09-19T05:10:23;66.40;43.19;78.04;;
45651;Laerm;31365;48.858;8.530;2023-09-19T05:12:53;66.15;41.82;79.21;;
45651;Laerm;31365;48.858;8.530;2023-09-19T05:15:22;66.83;46.45;80.39;;
45651;Laerm;31365;48.858;8.530;2023-09-19T05:17:52;66.64;45.33;82.53;;
45651;Laerm;31365;48.858;8.530;2023-09-19T05:20:25;65.08;42.93;77.66;;
45651;Laerm;31365;48.858;8.530;2023-09-19T05:22:58;65.31;44.31;78.33;;
45651;Laerm;31365;48.858;8.530;2023-09-19T05:25:29;67.30;40.62;83.65;;
45651;Laerm;31365;48.858;8.530;2023-09-19T05:27:58;64.48;41.75;79.44;;
45651;Laerm;31365;48.858;8.530;2023-09-19T05:30:27;65.68;44.47;79.65;;
45651;Laerm;31365;48.858;8.530;2023-09-19T05:32:57;65.94;42.16;80.45;;
45651;Laerm;31365;48.858;8.530;2023-09-19T05:35:26;67.16;44.19;79.29;;
45651;Laerm;31365;48.858;8.530;2023-09-19T05:37:54;64.43;43.19;78.96;;
45651;Laerm;31365;48.858;8.530;2023-09-19T05:40:23;62.74;39.46;80.43;;
45651;Laerm;31365;48.858;8.530;2023-09-19T05:42:52;63.65;39.92;78.34;;
45651;Laerm;31365;48.858;8.530;2023-09-19T05:45:20;65.00;44.38;76.60;;
45651;Laerm;31365;48.858;8.530;2023-09-19T05:47:51;66.21;42.03;80.78;;
45651;Laerm;31365;48.858;8.530;2023-09-19T05:50:24;68.62;42.98;82.58;;
45651;Laerm;31365;48.858;8.530;2023-09-19T05:52:53;65.25;42.42;80.00;;
45651;Laerm;31365;48.858;8.530;2023-09-19T05:55:23;66.27;43.14;81.66;;
45651;Laerm;31365;48.858;8.530;2023-09-19T05:57:53;65.45;43.54;81.13;;
45651;Laerm;31365;48.858;8.530;2023-09-19T06:00:24;64.67;42.35;81.21;;
45651;Laerm;31365;48.858;8.530;2023-09-19T06:02:55;64.13;42.16;78.35;;
45651;Laerm;31365;48.858;8.530;2023-09-19T06:05:27;64.12;42.53;76.83;;
45651;Laerm;31365;48.858;8.530;2023-09-19T06:07:57;62.47;40.03;77.77;;
45651;Laerm;31365;48.858;8.530;2023-09-19T06:10:28;63.30;41.75;80.87;;
45651;Laerm;31365;48.858;8.530;2023-09-19T06:12:58;66.41;41.89;84.03;;
45651;Laerm;31365;48.858;8.530;2023-09-19T06:15:26;64.73;42.30;84.57;;
45651;Laerm;31365;48.858;8.530;2023-09-19T06:17:55;66.19;42.76;83.92;;
45651;Laerm;31365;48.858;8.530;2023-09-19T06:20:26;63.76;42.16;78.86;;
45651;Laerm;31365;48.858;8.530;2023-09-19T06:22:55;61.90;42.29;78.24;;
45651;Laerm;31365;48.858;8.530;2023-09-19T06:25:23;64.49;39.58;81.63;;
45651;Laerm;31365;48.858;8.530;2023-09-19T06:27:53;63.32;41.89;78.63;;
45651;Laerm;31365;48.858;8.530;2023-09-19T06:30:24;66.22;42.09;79.17;;
45651;Laerm;31365;48.858;8.530;2023-09-19T06:32:56;64.70;42.53;82.46;;
45651;Laerm;31365;48.858;8.530;2023-09-19T06:35:28;63.04;41.06;78.97;;
45651;Laerm;31365;48.858;8.530;2023-09-19T06:37:57;62.65;44.58;76.34;;
45651;Laerm;31365;48.858;8.530;2023-09-19T06:40:26;63.49;46.87;79.76;;
45651;Laerm;31365;48.858;8.530;2023-09-19T06:42:55;64.54;47.96;77.77;;
45651;Laerm;31365;48.858;8.530;2023-09-19T06:45:24;63.21;42.71;76.49;;
45651;Laerm;31365;48.858;8.530;2023-09-19T06:47:54;71.56;42.88;97.83;;
45651;Laerm;31365;48.858;8.530;2023-09-19T06:50:27;63.36;43.58;79.83;;
45651;Laerm;31365;48.858;8.530;2023-09-19T06:52:58;60.18;41.06;73.08;;
45651;Laerm;31365;48.858;8.530;2023-09-19T06:55:27;65.15;45.17;82.45;;
45651;Laerm;31365;48.858;8.530;2023-09-19T06:57:58;63.60;41.46;78.12;;
45651;Laerm;31365;48.858;8.530;2023-09-19T07:00:27;61.03;42.03;76.10;;
45651;Laerm;31365;48.858;8.530;2023-09-19T07:03:01;64.06;40.80;80.35;;
45651;Laerm;31365;48.858;8.530;2023-09-19T07:05:34;64.27;40.23;81.07;;
45651;Laerm;31365;48.858;8.530;2023-09-19T07:08:08;57.64;39.58;72.42;;
45651;Laerm;31365;48.858;8.530;2023-09-19T07:10:38;64.63;42.16;78.25;;
45651;Laerm;31365;48.858;8.530;2023-09-19T07:13:08;62.02;41.30;75.19;;
45651;Laerm;31365;48.858;8.530;2023-09-19T07:15:38;62.95;41.89;80.67;;
45651;Laerm;31365;48.858;8.530;2023-09-19T07:18:14;58.44;40.71;73.53;;
45651;Laerm;31365;48.858;8.530;2023-09-19T07:20:46;62.60;40.89;74.80;;
45651;Laerm;31365;48.858;8.530;2023-09-19T07:23:18;60.71;42.88;74.61;;
45651;Laerm;31365;48.858;8.530;2023-09-19T07:25:48;62.03;42.35;76.59;;
45651;Laerm;31365;48.858;8.530;2023-09-19T07:28:17;62.98;41.75;76.36;;
45651;Laerm;31365;48.858;8.530;2023-09-19T07:30:46;61.02;40.71;81.72;;
45651;Laerm;31365;48.858;8.530;2023-09-19T07:33:14;63.07;43.58;78.15;;
45651;Laerm;31365;48.858;8.530;2023-09-19T07:35:47;60.68;40.53;76.21;;
45651;Laerm;31365;48.858;8.530;2023-09-19T07:38:16;59.71;41.22;72.93;;
45651;Laerm;31365;48.858;8.530;2023-09-19T07:40:44;61.83;41.14;76.05;;
45651;Laerm;31365;48.858;8.530;2023-09-19T07:43:13;63.79;42.03;78.87;;
45651;Laerm;31365;48.858;8.530;2023-09-19T07:45:41;57.85;41.06;72.83;;
45651;Laerm;31365;48.858;8.530;2023-09-19T07:48:10;61.96;39.81;77.26;;
45651;Laerm;31365;48.858;8.530;2023-09-19T07:50:42;63.59;42.88;77.32;;
45651;Laerm;31365;48.858;8.530;2023-09-19T07:53:13;69.08;41.22;86.78;;
45651;Laerm;31365;48.858;8.530;2023-09-19T07:55:43;60.29;39.92;77.37;;
45651;Laerm;31365;48.858;8.530;2023-09-19T07:58:15;59.92;40.13;74.82;;
45651;Laerm;31365;48.858;8.530;2023-09-19T08:00:43;63.12;40.03;76.94;;
45651;Laerm;31365;48.858;8.530;2023-09-19T08:03:13;62.29;40.03;77.04;;
45651;Laerm;31365;48.858;8.530;2023-09-19T08:05:44;61.25;42.35;79.40;;
45651;Laerm;31365;48.858;8.530;2023-09-19T08:08:15;62.84;40.62;77.37;;
45651;Laerm;31365;48.858;8.530;2023-09-19T08:10:43;60.87;39.21;79.38;;
45651;Laerm;31365;48.858;8.530;2023-09-19T08:13:16;63.33;42.22;75.79;;
45651;Laerm;31365;48.858;8.530;2023-09-19T08:15:45;61.07;40.03;77.43;;
45651;Laerm;31365;48.858;8.530;2023-09-19T08:18:15;61.86;37.88;77.25;;
45651;Laerm;31365;48.858;8.530;2023-09-19T08:20:49;62.17;40.03;79.03;;
45651;Laerm;31365;48.858;8.530;2023-09-19T08:23:19;67.01;37.88;89.30;;
45651;Laerm;31365;48.858;8.530;2023-09-19T08:25:48;61.51;41.53;79.26;;
45651;Laerm;31365;48.858;8.530;2023-09-19T08:28:17;56.52;39.34;73.87;;
45651;Laerm;31365;48.858;8.530;2023-09-19T08:30:50;62.19;39.08;76.92;;
45651;Laerm;31365;48.858;8.530;2023-09-19T08:33:20;64.32;39.81;81.53;;
45651;Laerm;31365;48.858;8.530;2023-09-19T08:35:48;60.77;42.16;76.94;;
45651;Laerm;31365;48.858;8.530;2023-09-19T08:38:16;60.88;39.08;77.38;;
45651;Laerm;31365;48.858;8.530;2023-09-19T08:40:46;60.56;39.70;77.00;;
45651;Laerm;31365;48.858;8.530;2023-09-19T08:43:14;61.16;39.70;75.39;;
45651;Laerm;31365;48.858;8.530;2023-09-19T08:45:42;62.32;38.67;77.37;;
45651;Laerm;31365;48.858;8.530;2023-09-19T08:48:22;62.21;41.30;81.03;;
45651;Laerm;31365;48.858;8.530;2023-09-19T08:50:56;62.13;40.43;79.27;;
45651;Laerm;31365;48.858;8.530;2023-09-19T08:53:31;62.92;40.89;77.82;;
45651;Laerm;31365;48.858;8.530;2023-09-19T08:56:10;60.46;41.75;76.66;;
45651;Laerm;31365;48.858;8.530;2023-09-19T08:58:46;60.46;41.75;76.66;;
45651;Laerm;31365;48.858;8.530;2023-09-19T09:01:18;65.33;41.53;85.88;;
45651;Laerm;31365;48.858;8.530;2023-09-19T09:03:53;57.26;41.06;73.31;;
45651;Laerm;31365;48.858;8.530;2023-09-19T09:06:24;62.11;42.93;81.51;;
45651;Laerm;31365;48.858;8.530;2023-09-19T09:08:53;59.06;37.88;72.21;;
45651;Laerm;31365;48.858;8.530;2023-09-19T09:11:23;62.02;40.89;80.86;;
45651;Laerm;31365;48.858;8.530;2023-09-19T09:13:52;62.89;40.13;77.41;;
45651;Laerm;31365;48.858;8.530;2023-09-19T09:16:20;62.64;41.96;78.04;;
45651;Laerm;31365;48.858;8.530;2023-09-19T09:18:53;61.52;42.22;79.09;;
45651;Laerm;31365;48.858;8.530;2023-09-19T09:21:22;63.95;41.61;82.10;;
45651;Laerm;31365;48.858;8.530;2023-09-19T09:23:53;59.75;39.70;77.02;;
45651;Laerm;31365;48.858;8.530;2023-09-19T09:26:44;58.60;39.21;73.99;;
45651;Laerm;31365;48.858;8.530;2023-09-19T09:29:14;59.36;38.67;78.07;;
45651;Laerm;31365;48.858;8.530;2023-09-19T09:32:18;60.12;37.32;81.62;;
45651;Laerm;31365;48.858;8.530;2023-09-19T09:34:50;58.00;41.68;76.73;;
45651;Laerm;31365;48.858;8.530;2023-09-19T09:37:20;59.26;43.44;72.93;;
45651;Laerm;31365;48.858;8.530;2023-09-19T09:39:51;63.74;43.09;80.10;;
45651;Laerm;31365;48.858;8.530;2023-09-19T09:45:14;61.28;43.09;80.50;;
45651;Laerm;31365;48.858;8.530;2023-09-19T09:47:45;65.02;43.14;82.12;;
45651;Laerm;31365;48.858;8.530;2023-09-19T09:50:29;61.21;42.71;77.29;;
45651;Laerm;31365;48.858;8.530;2023-09-19T09:53:20;60.27;43.04;75.80;;
45651;Laerm;31365;48.858;8.530;2023-09-19T09:56:01;61.19;43.39;77.83;;
45651;Laerm;31365;48.858;8.530;2023-09-19T09:58:36;62.28;43.34;77.38;;
45651;Laerm;31365;48.858;8.530;2023-09-19T10:01:07;64.78;42.53;85.30;;
45651;Laerm;31365;48.858;8.530;2023-09-19T10:03:43;64.63;42.98;83.03;;
45651;Laerm;31365;48.858;8.530;2023-09-19T10:06:16;64.34;42.29;79.87;;
45651;Laerm;31365;48.858;8.530;2023-09-19T10:09:03;61.96;40.62;82.25;;
45651;Laerm;31365;48.858;8.530;2023-09-19T10:11:43;62.97;39.57;75.59;;
45651;Laerm;31365;48.858;8.530;2023-09-19T10:14:16;66.83;42.53;88.74;;
45651;Laerm;31365;48.858;8.530;2023-09-19T10:16:48;58.68;39.08;73.72;;
45651;Laerm;31365;48.858;8.530;2023-09-19T10:19:26;61.65;39.92;79.86;;
45651;Laerm;31365;48.858;8.530;2023-09-19T10:21:59;59.82;38.52;79.23;;
45651;Laerm;31365;48.858;8.530;2023-09-19T10:24:30;63.67;40.33;79.71;;
45651;Laerm;31365;48.858;8.530;2023-09-19T10:27:06;63.11;41.53;80.74;;
45651;Laerm;31365;48.858;8.530;2023-09-19T10:29:39;59.46;36.69;76.06;;
45651;Laerm;31365;48.858;8.530;2023-09-19T10:32:31;59.99;38.05;78.80;;
45651;Laerm;31365;48.858;8.530;2023-09-19T10:35:02;63.41;41.82;78.26;;
45651;Laerm;31365;48.858;8.530;2023-09-19T10:37:34;61.24;41.14;79.81;;
45651;Laerm;31365;48.858;8.530;2023-09-19T10:40:07;57.90;40.03;71.12;;
45651;Laerm;31365;48.858;8.530;2023-09-19T10:42:40;59.71;42.03;73.39;;
45651;Laerm;31365;48.858;8.530;2023-09-19T10:45:13;59.04;39.58;82.21;;
45651;Laerm;31365;48.858;8.530;2023-09-19T10:47:47;60.53;39.81;74.72;;
45651;Laerm;31365;48.858;8.530;2023-09-19T10:50:21;60.54;41.89;74.76;;
45651;Laerm;31365;48.858;8.530;2023-09-19T10:52:51;59.66;40.45;75.26;;
45651;Laerm;31365;48.858;8.530;2023-09-19T10:55:27;61.40;40.53;77.34;;
45651;Laerm;31365;48.858;8.530;2023-09-19T10:58:26;59.25;38.02;74.98;;
45651;Laerm;31365;48.858;8.530;2023-09-19T11:03:39;60.85;39.08;77.25;;
45651;Laerm;31365;48.858;8.530;2023-09-19T11:06:13;58.20;40.80;73.16;;
45651;Laerm;31365;48.858;8.530;2023-09-19T11:09:01;60.57;38.67;74.73;;
45651;Laerm;31365;48.858;8.530;2023-09-19T11:11:48;61.73;39.21;78.14;;
45651;Laerm;31365;48.858;8.530;2023-09-19T11:14:42;63.47;39.21;81.27;;
45651;Laerm;31365;48.858;8.530;2023-09-19T11:17:32;64.93;40.89;82.55;;
45651;Laerm;31365;48.858;8.530;2023-09-19T11:20:24;62.13;39.34;75.82;;
45651;Laerm;31365;48.858;8.530;2023-09-19T11:23:24;61.98;39.21;83.29;;
45651;Laerm;31365;48.858;8.530;2023-09-19T11:25:53;60.21;39.46;76.20;;
45651;Laerm;31365;48.858;8.530;2023-09-19T11:28:33;59.46;37.32;79.48;;
45651;Laerm;31365;48.858;8.530;2023-09-19T11:34:47;60.45;40.03;76.38;;
45651;Laerm;31365;48.858;8.530;2023-09-19T11:38:04;60.30;40.62;78.39;;
45651;Laerm;31365;48.858;8.530;2023-09-19T11:40:46;58.51;39.08;77.24;;
45651;Laerm;31365;48.858;8.530;2023-09-19T11:43:30;60.60;40.43;76.04;;
45651;Laerm;31365;48.858;8.530;2023-09-19T11:46:08;64.76;40.80;84.02;;
45651;Laerm;31365;48.858;8.530;2023-09-19T11:48:39;59.87;38.05;74.39;;
45651;Laerm;31365;48.858;8.530;2023-09-19T11:51:17;60.43;39.08;73.81;;
45651;Laerm;31365;48.858;8.530;2023-09-19T11:53:57;59.81;38.52;79.13;;
45651;Laerm;31365;48.858;8.530;2023-09-19T11:56:27;60.11;39.34;77.67;;
45651;Laerm;31365;48.858;8.530;2023-09-19T11:58:57;58.73;38.67;74.23;;
45651;Laerm;31365;48.858;8.530;2023-09-19T12:01:31;59.47;40.53;77.76;;
45651;Laerm;31365;48.858;8.530;2023-09-19T12:04:02;58.90;41.22;75.52;;
45651;Laerm;31365;48.858;8.530;2023-09-19T12:06:34;60.27;40.43;73.37;;
45651;Laerm;31365;48.858;8.530;2023-09-19T12:09:03;61.34;41.82;76.18;;
45651;Laerm;31365;48.858;8.530;2023-09-19T12:11:42;59.63;40.53;72.20;;
45651;Laerm;31365;48.858;8.530;2023-09-19T12:14:21;64.82;40.98;82.31;;
45651;Laerm;31365;48.858;8.530;2023-09-19T12:16:54;63.36;40.71;78.62;;
45651;Laerm;31365;48.858;8.530;2023-09-19T12:19:24;67.11;42.35;84.27;;
45651;Laerm;31365;48.858;8.530;2023-09-19T12:21:58;59.70;39.46;73.91;;
45651;Laerm;31365;48.858;8.530;2023-09-19T12:24:27;62.26;38.21;80.86;;
45651;Laerm;31365;48.858;8.530;2023-09-19T12:27:03;58.22;39.08;74.45;;
45651;Laerm;31365;48.858;8.530;2023-09-19T12:29:46;55.90;39.34;75.69;;
45651;Laerm;31365;48.858;8.530;2023-09-19T12:32:16;59.86;40.03;73.11;;
45651;Laerm;31365;48.858;8.530;2023-09-19T12:34:53;61.95;40.62;78.06;;
45651;Laerm;31365;48.858;8.530;2023-09-19T12:37:23;62.13;38.81;75.92;;
45651;Laerm;31365;48.858;8.530;2023-09-19T12:40:05;61.41;39.34;78.29;;
45651;Laerm;31365;48.858;8.530;2023-09-19T12:42:44;61.82;41.53;78.98;;
45651;Laerm;31365;48.858;8.530;2023-09-19T12:45:33;61.18;37.32;73.87;;
45651;Laerm;31365;48.858;8.530;2023-09-19T12:48:19;58.84;39.58;72.36;;
45651;Laerm;31365;48.858;8.530;2023-09-19T12:51:02;60.11;41.53;78.20;;
45651;Laerm;31365;48.858;8.530;2023-09-19T12:53:38;56.90;41.68;72.79;;
45651;Laerm;31365;48.858;8.530;2023-09-19T12:56:10;58.88;41.30;75.82;;
45651;Laerm;31365;48.858;8.530;2023-09-19T12:58:49;63.82;40.62;84.85;;
45651;Laerm;31365;48.858;8.530;2023-09-19T13:01:18;59.78;42.71;77.28;;
45651;Laerm;31365;48.858;8.530;2023-09-19T13:04:13;56.52;40.62;71.45;;
45651;Laerm;31365;48.858;8.530;2023-09-19T13:06:46;56.91;41.06;76.87;;
45651;Laerm;31365;48.858;8.530;2023-09-19T13:11:48;57.15;39.58;71.18;;
45651;Laerm;31365;48.858;8.530;2023-09-19T13:14:20;60.75;38.52;79.99;;
45651;Laerm;31365;48.858;8.530;2023-09-19T13:16:59;59.74;42.30;72.94;;
45651;Laerm;31365;48.858;8.530;2023-09-19T13:19:41;60.39;42.09;77.15;;
45651;Laerm;31365;48.858;8.530;2023-09-19T13:22:39;57.25;41.38;71.87;;
45651;Laerm;31365;48.858;8.530;2023-09-19T13:25:12;59.23;39.58;78.32;;
45651;Laerm;31365;48.858;8.530;2023-09-19T13:27:44;60.75;39.21;73.44;;
45651;Laerm;31365;48.858;8.530;2023-09-19T13:30:12;61.39;38.67;76.77;;
45651;Laerm;31365;48.858;8.530;2023-09-19T13:32:41;58.10;38.81;74.01;;
45651;Laerm;31365;48.858;8.530;2023-09-19T13:35:11;58.81;39.70;76.40;;
45651;Laerm;31365;48.858;8.530;2023-09-19T13:37:40;64.20;42.98;82.94;;
45651;Laerm;31365;48.858;8.530;2023-09-19T13:40:13;63.80;44.27;79.34;;
45651;Laerm;31365;48.858;8.530;2023-09-19T13:42:42;59.94;40.23;78.85;;
45651;Laerm;31365;48.858;8.530;2023-09-19T13:45:11;60.98;42.29;77.63;;
45651;Laerm;31365;48.858;8.530;2023-09-19T13:47:42;64.21;38.37;77.32;;
45651;Laerm;31365;48.858;8.530;2023-09-19T13:50:10;61.77;46.50;73.47;;
45651;Laerm;31365;48.858;8.530;2023-09-19T13:52:40;60.44;40.89;75.24;;
45651;Laerm;31365;48.858;8.530;2023-09-19T13:55:10;63.51;42.03;79.64;;
45651;Laerm;31365;48.858;8.530;2023-09-19T13:57:43;61.17;39.57;75.02;;
45651;Laerm;31365;48.858;8.530;2023-09-19T14:00:13;61.00;41.68;76.13;;
45651;Laerm;31365;48.858;8.530;2023-09-19T14:03:02;60.86;40.33;77.19;;
45651;Laerm;31365;48.858;8.530;2023-09-19T14:05:31;62.34;41.22;75.42;;
45651;Laerm;31365;48.858;8.530;2023-09-19T14:08:00;58.69;39.35;77.11;;
45651;Laerm;31365;48.858;8.530;2023-09-19T14:13:00;62.80;40.62;77.48;;
45651;Laerm;31365;48.858;8.530;2023-09-19T14:15:29;61.55;38.52;78.31;;
45651;Laerm;31365;48.858;8.530;2023-09-19T14:18:01;61.84;42.22;76.99;;
45651;Laerm;31365;48.858;8.530;2023-09-19T14:20:30;61.94;40.33;75.57;;
45651;Laerm;31365;48.858;8.530;2023-09-19T14:22:58;63.39;42.76;78.90;;
45651;Laerm;31365;48.858;8.530;2023-09-19T14:25:27;63.23;44.76;76.63;;
45651;Laerm;31365;48.858;8.530;2023-09-19T14:27:57;63.17;38.37;76.08;;
45651;Laerm;31365;48.858;8.530;2023-09-19T14:30:26;60.78;40.80;75.36;;
45651;Laerm;31365;48.858;8.530;2023-09-19T14:32:54;62.95;42.22;81.43;;
45651;Laerm;31365;48.858;8.530;2023-09-19T14:35:25;62.13;42.98;76.58;;
45651;Laerm;31365;48.858;8.530;2023-09-19T14:37:53;65.47;45.80;81.52;;